Humbird, Wisconsin
Current Conditions -  °F | °C
As of 7:35 PM on Thursday 27 Nov 2014 (Local Time) from KBCK Reporting Station
Clear Clear  
Wind Chill:   Ceiling: Unl
Heat Index:   Visibility: 10mi
Dew Point: -4°   Wind: 0mph
Humidity: 83%   Direction: NA
Pressure: 30.38"   Gusts: NA
Location:  44.53°N, 90.89°W
Report Text: KBCK 280135Z AUTO 00000KT 10SM CLR M18/M20 A3038 RMK AO2 T11801202
Loading
Personal Weather Stations






























Interactive Weather Map New forecast layout! Learn more

10-Day Weather Forecast

Advertisements
Track Severe Weather on mobile